Time;durP1;ratioP1;P1;durP2;ratioP2;P2;SDS_P1;SDS_P2;PMS_P1;PMS_P2;Temp;Humidity;BMP_temperature;BMP_pressure;BME280_temperature;BME280_humidity;BME280_pressure;Samples;Min_cycle;Max_cycle;Signal;HPM_P1;HPM_P2
2022/09/04 04:01:40;;;;;;;14.60;13.10;;;17.00;99.90;;;;;;5508179;23;20560;-62
2022/09/04 04:04:34;;;;;;;16.20;13.50;;;17.00;99.90;;;;;;4978275;28;20439;-63
2022/09/04 04:07:07;;;;;;;15.50;13.70;;;17.00;99.90;;;;;;4978203;28;20438;-63
2022/09/04 04:09:49;;;;;;;15.53;14.00;;;16.90;99.90;;;;;;4978134;28;20470;-63
2022/09/04 04:12:28;;;;;;;16.90;15.10;;;16.90;99.90;;;;;;4977948;28;20486;-63
2022/09/04 04:15:04;;;;;;;16.70;14.90;;;16.90;99.90;;;;;;4978019;28;20448;-63
2022/09/04 04:18:00;;;;;;;16.50;14.70;;;16.80;99.90;;;;;;4977696;28;20815;-63
2022/09/04 04:20:40;;;;;;;17.30;15.60;;;16.70;99.90;;;;;;4977662;28;20439;-63
2022/09/04 04:23:29;;;;;;;17.83;14.73;;;16.70;99.90;;;;;;4977879;28;20446;-63
2022/09/04 04:26:09;;;;;;;15.60;14.10;;;16.60;99.90;;;;;;4977884;28;20443;-63
2022/09/04 04:29:02;;;;;;;16.43;14.30;;;16.60;99.90;;;;;;4977755;28;20474;-63
2022/09/04 04:31:41;;;;;;;13.57;12.37;;;16.60;99.90;;;;;;4975523;28;20486;-63
2022/09/04 04:34:17;;;;;;;13.00;11.80;;;16.60;99.90;;;;;;4977815;28;20439;-63
2022/09/04 04:36:55;;;;;;;12.70;11.60;;;16.60;99.90;;;;;;4977649;28;20443;-63
2022/09/04 04:39:27;;;;;;;13.43;12.23;;;16.60;99.90;;;;;;4977698;28;20442;-63
2022/09/04 04:42:16;;;;;;;12.60;11.40;;;16.60;99.90;;;;;;4977500;28;20478;-63
2022/09/04 04:48:10;;;;;;;13.20;12.00;;;16.70;99.90;;;;;;4977530;28;20411;-63
2022/09/04 04:50:48;;;;;;;13.10;11.90;;;16.70;99.90;;;;;;4945247;28;20471;-62
2022/09/04 04:53:23;;;;;;;12.07;11.07;;;16.70;99.90;;;;;;4977340;28;20462;-63
2022/09/04 04:55:56;;;;;;;13.33;12.23;;;16.70;99.90;;;;;;4977304;28;20438;-63
2022/09/04 04:58:50;;;;;;;11.97;10.97;;;16.70;99.90;;;;;;4977178;28;20817;-63
2022/09/04 05:01:29;;;;;;;12.67;10.60;;;16.70;99.90;;;;;;4976675;28;20482;-63
2022/09/04 05:04:09;;;;;;;11.60;10.60;;;16.70;99.90;;;;;;4977039;28;20443;-63
2022/09/04 05:06:43;;;;;;;12.13;11.13;;;16.70;99.90;;;;;;4977013;28;20473;-63
2022/09/04 05:09:16;;;;;;;13.47;12.17;;;16.70;99.90;;;;;;4976962;28;20451;-63
2022/09/04 05:11:52;;;;;;;15.80;13.53;;;16.70;99.90;;;;;;4976909;28;20490;-62
2022/09/04 05:14:31;;;;;;;14.80;12.00;;;16.60;99.90;;;;;;4976839;28;20434;-62
2022/09/04 05:17:04;;;;;;;13.83;12.67;;;16.60;99.90;;;;;;4977003;28;20489;-63
2022/09/04 05:19:36;;;;;;;12.80;11.70;;;16.60;99.90;;;;;;4977013;28;20458;-64
2022/09/04 05:22:11;;;;;;;13.57;12.43;;;16.60;99.90;;;;;;4977085;28;20478;-64
2022/09/04 05:24:49;;;;;;;12.70;11.50;;;16.60;99.90;;;;;;4977089;28;20443;-64
2022/09/04 05:27:39;;;;;;;13.00;11.80;;;16.70;99.90;;;;;;4976994;28;20530;-63
2022/09/04 05:30:10;;;;;;;13.70;12.40;;;16.70;99.90;;;;;;4976656;28;20801;-64
2022/09/04 05:32:44;;;;;;;12.90;11.70;;;16.70;99.90;;;;;;4976960;28;20470;-64
2022/09/04 05:35:17;;;;;;;13.23;11.90;;;16.70;99.90;;;;;;4976734;28;20443;-64
2022/09/04 05:37:53;;;;;;;13.67;12.50;;;16.80;99.90;;;;;;4976831;28;20454;-64
2022/09/04 05:40:27;;;;;;;12.17;11.07;;;16.80;99.90;;;;;;4976713;28;20438;-64
2022/09/04 05:43:12;;;;;;;13.40;12.20;;;16.80;99.90;;;;;;4976842;28;20442;-64
2022/09/04 05:45:49;;;;;;;12.13;11.10;;;16.90;99.90;;;;;;4976560;28;20446;-63
2022/09/04 05:48:22;;;;;;;13.30;12.00;;;16.90;99.90;;;;;;4976262;28;20965;-64
2022/09/04 05:51:22;;;;;;;12.23;11.13;;;17.00;99.90;;;;;;4976384;28;20614;-64
2022/09/04 05:54:13;;;;;;;10.97;10.03;;;17.10;99.90;;;;;;4971234;28;21068;-64
2022/09/04 05:56:55;;;;;;;14.73;11.30;;;17.30;99.90;;;;;;4975912;28;20902;-62
2022/09/04 05:59:45;;;;;;;10.30;9.50;;;17.40;99.90;;;;;;4976056;28;20450;-63
2022/09/04 06:02:45;;;;;;;9.80;9.10;;;17.50;99.90;;;;;;4974047;28;20487;-62
2022/09/04 06:05:22;;;;;;;10.50;9.60;;;17.70;99.90;;;;;;4974024;28;20968;-62
2022/09/04 06:07:59;;;;;;;8.13;7.60;;;17.80;99.90;;;;;;4976383;28;20445;-62
2022/09/04 06:10:37;;;;;;;7.37;6.67;;;18.20;99.90;;;;;;4976267;28;20443;-62
2022/09/04 06:13:25;;;;;;;7.53;6.83;;;18.60;99.90;;;;;;4975148;28;20463;-62
2022/09/04 06:16:05;;;;;;;5.90;5.40;;;19.10;99.90;;;;;;4975863;28;20537;-63
2022/09/04 06:19:11;;;;;;;6.20;5.80;;;19.70;99.90;;;;;;4975828;28;20442;-63
2022/09/04 06:22:00;;;;;;;6.60;6.20;;;20.00;99.90;;;;;;4958830;28;20478;-63
2022/09/04 06:24:43;;;;;;;5.40;4.97;;;20.40;99.90;;;;;;4976265;28;20439;-63
2022/09/04 06:27:25;;;;;;;5.57;5.17;;;21.00;99.90;;;;;;4975533;28;20439;-63
2022/09/04 06:30:03;;;;;;;4.57;4.27;;;21.60;99.90;;;;;;4975739;28;20489;-64
2022/09/04 06:32:47;;;;;;;5.53;5.03;;;22.10;99.90;;;;;;4975367;28;20966;-64
2022/09/04 06:35:26;;;;;;;4.97;4.67;;;22.60;99.90;;;;;;4975855;28;20443;-63
2022/09/04 06:38:07;;;;;;;5.10;4.50;;;23.10;99.90;;;;;;4975611;28;20443;-62
2022/09/04 06:40:53;;;;;;;5.00;4.47;;;23.50;99.90;;;;;;4975060;28;20977;-62
2022/09/04 06:43:27;;;;;;;4.90;4.50;;;24.00;99.90;;;;;;4975530;28;20439;-62
2022/09/04 06:46:05;;;;;;;5.13;4.83;;;24.30;99.90;;;;;;4975362;28;20443;-62
2022/09/04 06:48:44;;;;;;;4.57;4.17;;;24.80;99.90;;;;;;4975360;28;20449;-62
2022/09/04 06:51:27;;;;;;;4.33;4.03;;;25.10;99.90;;;;;;4975362;28;20497;-62
2022/09/04 06:54:04;;;;;;;4.50;4.20;;;25.50;99.90;;;;;;4974787;28;20462;-62
2022/09/04 06:56:45;;;;;;;4.13;3.93;;;25.80;99.90;;;;;;4975257;28;20513;-63
2022/09/04 06:59:27;;;;;;;4.63;4.30;;;26.00;99.90;;;;;;4974842;28;20439;-63
2022/09/04 07:02:04;;;;;;;3.80;3.50;;;26.40;99.90;;;;;;4974702;28;20489;-63
2022/09/04 07:04:44;;;;;;;3.80;3.60;;;26.80;99.90;;;;;;4975090;28;20490;-63
2022/09/04 07:07:20;;;;;;;4.13;3.83;;;27.20;99.90;;;;;;4975032;28;20864;-63
2022/09/04 07:09:51;;;;;;;4.10;3.90;;;27.60;99.90;;;;;;4974720;28;20918;-64
2022/09/04 07:12:51;;;;;;;4.03;3.63;;;28.00;99.90;;;;;;4974878;28;20836;-63
2022/09/04 07:15:43;;;;;;;3.30;3.10;;;28.40;99.90;;;;;;4975278;28;20856;-63
2022/09/04 07:18:28;;;;;;;3.40;3.20;;;28.90;99.90;;;;;;4975254;28;20443;-63
2022/09/04 07:21:05;;;;;;;3.73;3.53;;;29.30;99.90;;;;;;4975339;28;20475;-63
2022/09/04 07:23:43;;;;;;;3.33;3.13;;;29.60;99.90;;;;;;4975359;28;20442;-63
2022/09/04 07:26:19;;;;;;;3.93;3.73;;;29.90;99.10;;;;;;4978120;28;20886;-63
2022/09/04 07:29:11;;;;;;;4.00;3.87;;;30.00;98.50;;;;;;4979248;28;20442;-63
2022/09/04 07:31:44;;;;;;;3.80;3.50;;;30.00;98.50;;;;;;4978920;28;20973;-63
2022/09/04 07:34:17;;;;;;;3.77;3.47;;;29.80;98.60;;;;;;4979135;28;20812;-63
2022/09/04 07:36:50;;;;;;;3.90;3.60;;;30.20;97.20;;;;;;4978848;28;20918;-63
2022/09/04 07:39:25;;;;;;;4.10;3.90;;;29.30;96.70;;;;;;4979016;28;20442;-63
2022/09/04 07:42:00;;;;;;;3.93;3.73;;;28.80;97.80;;;;;;4979579;28;20961;-63
2022/09/04 07:44:37;;;;;;;4.30;3.77;;;29.00;99.00;;;;;;4978681;28;20445;-64
2022/09/04 07:47:13;;;;;;;4.17;3.87;;;29.30;98.50;;;;;;4978547;28;20442;-63
2022/09/04 07:49:49;;;;;;;3.50;3.30;;;29.50;97.20;;;;;;4978526;28;20446;-64
2022/09/04 07:52:29;;;;;;;3.67;3.47;;;29.70;98.00;;;;;;4978148;28;20985;-64
2022/09/04 07:55:08;;;;;;;5.77;4.30;;;30.00;97.60;;;;;;4978341;28;20489;-63
2022/09/04 07:58:20;;;;;;;2.97;2.87;;;30.60;96.60;;;;;;4979009;28;20439;-64
2022/09/04 08:01:01;;;;;;;3.63;3.43;;;31.10;95.30;;;;;;4978002;28;20478;-64
2022/09/04 08:03:42;;;;;;;3.87;3.50;;;31.50;93.90;;;;;;4978229;28;20435;-64
2022/09/04 08:06:15;;;;;;;3.40;3.20;;;31.30;91.90;;;;;;4978118;28;20434;-64
2022/09/04 08:09:06;;;;;;;8.60;3.20;;;31.30;92.30;;;;;;4978039;28;20435;-65
2022/09/04 08:11:58;;;;;;;3.03;2.83;;;31.30;91.50;;;;;;4970959;28;20474;-63
2022/09/04 08:14:41;;;;;;;3.83;3.50;;;31.50;92.30;;;;;;4977944;28;20505;-64
2022/09/04 08:17:50;;;;;;;3.30;3.10;;;31.80;91.70;;;;;;4978073;28;20446;-64
2022/09/04 08:20:33;;;;;;;3.40;3.10;;;32.00;90.70;;;;;;4958729;28;20454;-64
2022/09/04 08:23:17;;;;;;;4.70;3.30;;;32.80;88.90;;;;;;4977714;28;20805;-64
2022/09/04 08:25:53;;;;;;;3.30;3.20;;;32.90;88.60;;;;;;4977909;28;20469;-64
2022/09/04 08:28:32;;;;;;;3.63;3.40;;;33.20;86.00;;;;;;4977892;28;20438;-64
2022/09/04 08:31:07;;;;;;;3.43;3.13;;;33.10;86.10;;;;;;4977710;28;20595;-64
2022/09/04 08:33:58;;;;;;;5.93;5.53;;;33.50;85.00;;;;;;4977708;28;20466;-64
2022/09/04 08:36:32;;;;;;;3.80;3.53;;;34.00;80.90;;;;;;4977037;28;20442;-65
2022/09/04 08:39:07;;;;;;;4.10;3.80;;;34.40;78.70;;;;;;4977528;28;20497;-63
2022/09/04 08:41:59;;;;;;;3.20;3.10;;;34.70;76.50;;;;;;4977506;28;20480;-64
2022/09/04 08:45:04;;;;;;;3.80;3.60;;;35.10;76.40;;;;;;4977557;28;20435;-64
2022/09/04 08:47:51;;;;;;;3.37;3.03;;;35.60;72.70;;;;;;4977396;28;20485;-65
2022/09/04 08:50:52;;;;;;;3.03;2.83;;;35.50;73.90;;;;;;4977333;28;20446;-65
2022/09/04 08:53:41;;;;;;;3.17;3.00;;;35.40;71.30;;;;;;4966717;28;20997;-65
2022/09/04 08:56:29;;;;;;;4.27;3.00;;;35.20;71.20;;;;;;4977339;28;20443;-65
2022/09/04 08:59:35;;;;;;;3.23;3.03;;;34.20;75.10;;;;;;4976950;28;20442;-65
2022/09/04 09:02:40;;;;;;;3.27;3.07;;;34.10;74.10;;;;;;4976794;28;20478;-64
2022/09/04 09:05:45;;;;;;;2.87;2.67;;;33.90;75.30;;;;;;4977178;28;20453;-64
2022/09/04 09:09:04;;;;;;;3.00;2.70;;;34.10;73.10;;;;;;4977058;28;20439;-64
2022/09/04 09:12:04;;;;;;;2.60;2.40;;;34.10;76.60;;;;;;4960356;28;21060;-64
2022/09/04 09:15:15;;;;;;;2.53;2.33;;;34.60;71.70;;;;;;4976588;28;20977;-65
2022/09/04 09:18:00;;;;;;;2.27;2.07;;;35.50;70.30;;;;;;4953094;28;20454;-65
2022/09/04 09:20:29;;;;;;;2.20;2.10;;;35.60;67.90;;;;;;4976390;28;20445;-65
2022/09/04 09:23:15;;;;;;;2.00;1.93;;;36.00;66.00;;;;;;4976802;28;20452;-65
2022/09/04 09:25:50;;;;;;;2.47;2.37;;;36.00;66.20;;;;;;4976389;28;20485;-64
2022/09/04 09:29:03;;;;;;;2.30;2.20;;;36.30;66.00;;;;;;4976775;28;20446;-64
2022/09/04 09:32:07;;;;;;;2.67;2.47;;;36.60;61.90;;;;;;4958621;28;20474;-65
2022/09/04 09:35:13;;;;;;;2.60;2.47;;;35.80;64.50;;;;;;4976395;28;20564;-65
2022/09/04 09:38:21;;;;;;;2.27;2.20;;;36.00;63.50;;;;;;4976572;28;20449;-65
2022/09/04 09:41:20;;;;;;;1.90;1.80;;;36.20;63.10;;;;;;4976074;28;20972;-65
2022/09/04 09:44:17;;;;;;;1.90;1.80;;;35.80;63.80;;;;;;4976301;28;20501;-64
2022/09/04 09:47:13;;;;;;;1.67;1.60;;;34.70;63.40;;;;;;4976235;28;20446;-64
2022/09/04 09:50:12;;;;;;;1.80;1.80;;;34.30;65.90;;;;;;4975235;28;20439;-64
2022/09/04 09:53:12;;;;;;;1.77;1.67;;;33.80;68.50;;;;;;4976236;28;20509;-64
2022/09/04 09:56:24;;;;;;;1.33;1.33;;;34.40;67.10;;;;;;4960139;28;20449;-64
2022/09/04 09:59:35;;;;;;;4.10;1.70;;;35.00;64.70;;;;;;4975747;28;20450;-65
2022/09/04 10:02:20;;;;;;;1.60;1.60;;;36.00;59.60;;;;;;4976280;28;20473;-64
2022/09/04 10:05:28;;;;;;;1.33;1.33;;;36.20;59.20;;;;;;4975795;28;20940;-65
2022/09/04 10:08:34;;;;;;;1.60;1.60;;;35.30;60.70;;;;;;4975885;28;20439;-65
2022/09/04 10:11:40;;;;;;;1.43;1.43;;;35.70;60.70;;;;;;4938441;28;20472;-65
2022/09/04 10:14:46;;;;;;;1.30;1.20;;;35.80;59.50;;;;;;4975716;28;20462;-65
2022/09/04 10:17:47;;;;;;;1.60;1.60;;;36.40;58.40;;;;;;4975777;28;20442;-65
2022/09/04 10:20:48;;;;;;;1.63;1.60;;;36.50;58.10;;;;;;4975723;28;20441;-65
2022/09/04 10:23:41;;;;;;;4.50;1.97;;;35.10;58.60;;;;;;4965471;28;20946;-65
2022/09/04 10:26:25;;;;;;;1.57;1.50;;;33.40;58.50;;;;;;4975313;28;20814;-64
2022/09/04 10:29:27;;;;;;;3.57;2.17;;;32.20;62.10;;;;;;4975650;28;20471;-64
2022/09/04 10:32:20;;;;;;;1.70;1.60;;;31.90;69.40;;;;;;4975401;28;20528;-64
2022/09/04 10:35:15;;;;;;;3.10;1.60;;;32.40;66.40;;;;;;4975237;28;20474;-64
2022/09/04 10:38:15;;;;;;;1.60;1.50;;;33.10;64.10;;;;;;4971406;28;20516;-64
2022/09/04 10:41:07;;;;;;;1.63;1.63;;;34.00;62.80;;;;;;4964715;28;20509;-64
2022/09/04 10:44:02;;;;;;;3.03;1.17;;;35.20;59.60;;;;;;4975135;28;20526;-65
2022/09/04 10:46:42;;;;;;;1.60;1.50;;;35.70;57.60;;;;;;4975279;28;20443;-65
2022/09/04 10:49:19;;;;;;;1.10;1.10;;;36.20;55.90;;;;;;4975327;28;20469;-65
2022/09/04 10:52:23;;;;;;;1.30;1.30;;;36.00;57.10;;;;;;4975272;28;20473;-65
2022/09/04 10:55:16;;;;;;;1.37;1.30;;;36.00;57.30;;;;;;4975462;28;20461;-66
2022/09/04 10:58:01;;;;;;;1.30;1.30;;;36.40;55.60;;;;;;4974988;28;20442;-65
2022/09/04 11:00:38;;;;;;;1.30;1.30;;;36.30;53.80;;;;;;4974895;28;20442;-65
2022/09/04 11:03:34;;;;;;;2.00;1.50;;;36.30;53.90;;;;;;4975635;28;20814;-65
2022/09/04 11:06:48;;;;;;;1.50;1.40;;;36.40;53.00;;;;;;4975422;28;20439;-65
2022/09/04 11:09:43;;;;;;;1.40;1.30;;;36.20;53.80;;;;;;4974870;28;21061;-65
2022/09/04 11:12:48;;;;;;;1.17;1.17;;;36.00;53.70;;;;;;4975293;28;20477;-66
2022/09/04 11:15:53;;;;;;;1.60;1.50;;;35.60;55.40;;;;;;4951130;28;20501;-66
2022/09/04 11:19:00;;;;;;;1.03;1.03;;;35.30;51.10;;;;;;4968807;28;20461;-66
2022/09/04 11:22:00;;;;;;;1.53;1.00;;;34.90;55.50;;;;;;4957772;28;20474;-66
2022/09/04 11:25:13;;;;;;;1.30;1.30;;;34.70;52.30;;;;;;4952718;28;20458;-65
2022/09/04 11:28:06;;;;;;;1.80;1.60;;;34.00;52.80;;;;;;4937613;28;20448;-64
2022/09/04 11:30:52;;;;;;;1.67;1.57;;;33.20;55.20;;;;;;4974982;28;20442;-65
2022/09/04 11:34:03;;;;;;;1.80;1.70;;;32.80;56.60;;;;;;4975145;28;20434;-65
2022/09/04 11:36:51;;;;;;;1.20;1.10;;;32.60;58.30;;;;;;4974687;28;20986;-64
2022/09/04 11:39:51;;;;;;;1.40;1.40;;;32.10;56.80;;;;;;4974974;28;20443;-65
2022/09/04 11:42:29;;;;;;;2.53;1.37;;;32.00;56.90;;;;;;4974542;28;20837;-65
2022/09/04 11:45:21;;;;;;;1.50;1.40;;;31.90;59.20;;;;;;4975117;28;20442;-65
2022/09/04 11:48:18;;;;;;;1.37;1.37;;;31.90;58.60;;;;;;4974781;28;20447;-66
2022/09/04 11:51:21;;;;;;;1.30;1.20;;;32.00;59.70;;;;;;4974388;28;20977;-65
2022/09/04 11:54:11;;;;;;;3.50;1.30;;;31.90;57.90;;;;;;4974806;28;20462;-66
2022/09/04 11:57:04;;;;;;;2.40;1.10;;;31.70;58.30;;;;;;4974826;28;20446;-65
2022/09/04 11:59:52;;;;;;;1.30;1.30;;;31.90;58.90;;;;;;4972376;28;20454;-65
2022/09/04 12:02:33;;;;;;;1.23;1.23;;;31.80;59.50;;;;;;4974374;28;20985;-65
2022/09/04 12:05:10;;;;;;;1.40;1.40;;;31.30;60.00;;;;;;4974698;28;20442;-65
2022/09/04 12:07:48;;;;;;;1.70;1.47;;;31.20;61.50;;;;;;4974633;28;20447;-64
2022/09/04 12:10:42;;;;;;;1.40;1.40;;;31.00;62.00;;;;;;4974302;28;20948;-65
2022/09/04 12:13:55;;;;;;;1.63;1.50;;;30.60;61.90;;;;;;4977236;28;20522;-64
2022/09/04 12:17:09;;;;;;;1.77;1.67;;;30.00;62.40;;;;;;4959510;28;20537;-65
2022/09/04 12:20:05;;;;;;;1.57;1.50;;;29.50;63.80;;;;;;4959832;28;20463;-65
2022/09/04 12:23:01;;;;;;;2.40;1.50;;;29.30;66.50;;;;;;4971385;28;20509;-65
2022/09/04 12:25:53;;;;;;;1.50;1.40;;;29.60;65.10;;;;;;4978024;28;20463;-65
2022/09/04 12:28:58;;;;;;;1.27;1.27;;;29.90;60.90;;;;;;4977634;28;20906;-65
2022/09/04 12:31:51;;;;;;;3.57;1.27;;;30.30;60.10;;;;;;4961191;28;20989;-65
2022/09/04 12:34:45;;;;;;;1.50;1.40;;;30.70;59.00;;;;;;4972332;28;20476;-65
2022/09/04 12:37:46;;;;;;;1.57;1.57;;;31.00;58.90;;;;;;4977731;28;20929;-65
2022/09/04 12:40:42;;;;;;;2.07;1.40;;;31.00;58.30;;;;;;4970193;28;20859;-65
2022/09/04 12:43:21;;;;;;;1.40;1.40;;;31.10;59.00;;;;;;4977735;28;20443;-65
2022/09/04 12:45:58;;;;;;;0.90;0.90;;;31.20;60.50;;;;;;4977755;28;20494;-64
2022/09/04 12:48:34;;;;;;;2.00;1.90;;;31.10;56.90;;;;;;4977620;28;20439;-64
2022/09/04 12:51:10;;;;;;;2.97;2.20;;;30.80;60.40;;;;;;4977456;28;20569;-65
2022/09/04 12:53:58;;;;;;;1.47;1.37;;;30.80;59.40;;;;;;4977127;28;20802;-65
2022/09/04 12:56:41;;;;;;;1.53;1.50;;;30.80;58.30;;;;;;4977513;28;20435;-65
2022/09/04 12:59:22;;;;;;;2.43;1.40;;;30.60;59.20;;;;;;4976970;28;20911;-64
2022/09/04 13:02:00;;;;;;;1.67;1.57;;;30.50;61.80;;;;;;4976588;28;20537;-65
2022/09/04 13:04:33;;;;;;;1.27;1.27;;;30.70;60.20;;;;;;4976606;28;20435;-64
2022/09/04 13:07:23;;;;;;;1.37;1.37;;;30.70;59.70;;;;;;4977105;28;20441;-64
2022/09/04 13:10:00;;;;;;;1.60;1.50;;;30.70;61.00;;;;;;4977118;28;20454;-64
2022/09/04 13:12:39;;;;;;;1.50;1.43;;;30.50;58.90;;;;;;4977148;28;20816;-64
2022/09/04 13:15:28;;;;;;;1.73;1.63;;;29.80;59.80;;;;;;4977370;28;20469;-65
2022/09/04 13:18:07;;;;;;;2.20;2.10;;;29.60;62.20;;;;;;4976903;28;20447;-65
2022/09/04 13:20:44;;;;;;;2.47;2.10;;;29.40;61.40;;;;;;4977556;28;20438;-64
2022/09/04 13:23:34;;;;;;;1.60;1.60;;;29.00;63.00;;;;;;4976373;28;20489;-64
2022/09/04 13:26:14;;;;;;;1.70;1.60;;;28.70;65.50;;;;;;4976633;28;20445;-64
2022/09/04 13:28:54;;;;;;;1.87;1.80;;;28.50;65.10;;;;;;4976241;28;20949;-64
2022/09/04 13:31:35;;;;;;;3.07;1.60;;;28.40;66.80;;;;;;4976522;28;20475;-64
2022/09/04 13:34:13;;;;;;;1.80;1.70;;;28.30;65.00;;;;;;4976504;28;20450;-64
2022/09/04 13:36:49;;;;;;;1.80;1.70;;;28.40;64.20;;;;;;4976539;28;20430;-64
2022/09/04 13:39:45;;;;;;;1.80;1.70;;;28.40;67.60;;;;;;4976423;28;20476;-64
2022/09/04 13:42:50;;;;;;;2.23;2.13;;;28.30;65.80;;;;;;4976336;28;20473;-64
2022/09/04 13:45:22;;;;;;;1.60;1.50;;;28.40;67.70;;;;;;4976426;28;20439;-64
2022/09/04 13:47:54;;;;;;;1.70;1.60;;;28.60;64.30;;;;;;4976296;28;20483;-64
2022/09/04 13:50:24;;;;;;;1.40;1.40;;;28.80;66.10;;;;;;4976215;28;20442;-64
2022/09/04 13:52:56;;;;;;;3.30;1.87;;;29.00;66.90;;;;;;4975902;28;20454;-64
2022/09/04 13:55:28;;;;;;;1.70;1.70;;;29.20;65.40;;;;;;4976065;28;20467;-64
2022/09/04 13:58:01;;;;;;;3.80;1.90;;;29.50;64.30;;;;;;4976131;28;20439;-64
2022/09/04 14:00:31;;;;;;;1.60;1.50;;;29.60;63.50;;;;;;4975956;28;20443;-64
2022/09/04 14:03:02;;;;;;;2.50;1.50;;;29.80;61.50;;;;;;4976117;28;20804;-64
2022/09/04 14:05:33;;;;;;;1.63;1.30;;;30.10;61.40;;;;;;4976557;28;20439;-64
2022/09/04 14:08:03;;;;;;;1.57;1.57;;;30.30;61.30;;;;;;4977065;28;20834;-64
2022/09/04 14:11:03;;;;;;;1.70;1.60;;;30.40;63.60;;;;;;4977833;28;20439;-64
2022/09/04 14:13:43;;;;;;;1.70;1.60;;;30.60;59.60;;;;;;4976439;28;20443;-65
2022/09/04 14:16:13;;;;;;;2.20;2.10;;;30.70;59.10;;;;;;4976485;28;20466;-65
2022/09/04 14:18:52;;;;;;;1.20;1.20;;;30.70;61.60;;;;;;4976374;28;20502;-65
2022/09/04 14:21:30;;;;;;;1.60;1.50;;;30.70;59.40;;;;;;4976256;28;20474;-65
2022/09/04 14:24:04;;;;;;;1.73;1.63;;;30.80;58.50;;;;;;4976269;28;20910;-65
2022/09/04 14:26:41;;;;;;;1.43;1.30;;;30.90;58.80;;;;;;4976472;28;20443;-65
2022/09/04 14:29:21;;;;;;;1.40;1.30;;;30.90;59.00;;;;;;4976451;28;20506;-64
2022/09/04 14:31:58;;;;;;;1.27;1.23;;;30.90;60.10;;;;;;4976023;28;20977;-64
2022/09/04 14:34:36;;;;;;;1.80;1.70;;;30.80;59.30;;;;;;4975783;28;20447;-64
2022/09/04 14:37:15;;;;;;;1.63;1.57;;;30.80;58.20;;;;;;4976273;28;20485;-64
2022/09/04 14:39:48;;;;;;;1.43;1.33;;;30.60;60.10;;;;;;4975803;28;20446;-65
2022/09/04 14:42:43;;;;;;;2.00;1.43;;;30.60;59.70;;;;;;4975872;28;20474;-64
2022/09/04 14:45:23;;;;;;;2.77;1.30;;;30.70;59.00;;;;;;4976440;28;20497;-65
2022/09/04 14:47:54;;;;;;;1.33;1.33;;;30.70;57.90;;;;;;4976049;28;20577;-64
2022/09/04 14:50:28;;;;;;;1.37;1.33;;;30.70;58.50;;;;;;4975538;28;20438;-64
2022/09/04 14:52:59;;;;;;;1.40;1.40;;;30.90;57.90;;;;;;4975179;28;20478;-65
2022/09/04 14:55:29;;;;;;;1.80;1.50;;;30.90;57.50;;;;;;4975285;28;20900;-64
2022/09/04 14:58:04;;;;;;;1.27;1.17;;;30.90;57.40;;;;;;4975286;28;20802;-65
2022/09/04 15:00:34;;;;;;;2.70;1.43;;;30.80;57.60;;;;;;4974973;28;20443;-64
2022/09/04 15:03:09;;;;;;;2.60;1.50;;;30.80;56.10;;;;;;4975297;28;20439;-65
2022/09/04 15:05:46;;;;;;;1.30;1.30;;;30.80;59.50;;;;;;4975244;28;20437;-65
2022/09/04 15:08:26;;;;;;;1.40;1.33;;;30.80;58.30;;;;;;4975143;28;20505;-65
2022/09/04 15:10:59;;;;;;;1.30;1.20;;;30.80;57.50;;;;;;4975081;28;20544;-64
2022/09/04 15:13:49;;;;;;;1.63;1.40;;;30.50;56.80;;;;;;4974883;28;20922;-64
2022/09/04 15:16:20;;;;;;;1.80;1.60;;;30.50;57.40;;;;;;4974773;28;20469;-65
2022/09/04 15:19:05;;;;;;;1.40;1.40;;;30.50;56.60;;;;;;4975097;28;20445;-65
2022/09/04 15:21:38;;;;;;;1.67;1.27;;;30.50;56.00;;;;;;4975043;28;20485;-65
2022/09/04 15:24:15;;;;;;;1.53;1.43;;;30.40;56.90;;;;;;4974895;28;20778;-65
2022/09/04 15:26:46;;;;;;;1.60;1.50;;;30.40;56.90;;;;;;4975008;28;20442;-65
2022/09/04 15:29:23;;;;;;;1.30;1.20;;;30.40;59.80;;;;;;4975087;28;20443;-65
2022/09/04 15:31:59;;;;;;;2.57;1.80;;;30.30;63.00;;;;;;4974854;28;20486;-65
2022/09/04 15:34:27;;;;;;;2.10;1.60;;;30.30;60.30;;;;;;4974983;28;20442;-65
2022/09/04 15:36:54;;;;;;;1.53;1.43;;;30.30;59.60;;;;;;4974705;28;20482;-65
2022/09/04 15:39:29;;;;;;;3.50;1.87;;;30.20;59.90;;;;;;4974882;28;20469;-65
2022/09/04 15:41:56;;;;;;;2.10;1.90;;;30.10;59.70;;;;;;4974889;28;20482;-64
2022/09/04 15:44:31;;;;;;;1.90;1.80;;;29.90;59.90;;;;;;4974812;28;20461;-65
2022/09/04 15:47:02;;;;;;;1.80;1.70;;;29.70;60.60;;;;;;4975553;28;20445;-65
2022/09/04 15:49:41;;;;;;;1.70;1.60;;;29.50;61.50;;;;;;4978497;28;20450;-65
2022/09/04 15:52:21;;;;;;;1.70;1.63;;;29.50;61.30;;;;;;4978228;28;20986;-65
2022/09/04 15:55:05;;;;;;;1.27;1.20;;;29.40;61.70;;;;;;4978624;28;20500;-65
2022/09/04 15:57:47;;;;;;;1.70;1.60;;;29.40;61.20;;;;;;4978152;28;20435;-65
2022/09/04 16:00:21;;;;;;;1.57;1.50;;;29.20;60.90;;;;;;4978285;28;20454;-65
2022/09/04 16:02:55;;;;;;;1.83;1.73;;;29.00;62.50;;;;;;4978294;28;20439;-65
2022/09/04 16:05:29;;;;;;;2.33;2.13;;;28.90;63.30;;;;;;4978363;28;20434;-64
2022/09/04 16:08:02;;;;;;;1.87;1.77;;;28.80;62.40;;;;;;4978177;28;20449;-64
2022/09/04 16:10:42;;;;;;;1.70;1.60;;;28.70;62.40;;;;;;4978175;28;20457;-64
2022/09/04 16:13:34;;;;;;;2.10;2.00;;;28.60;62.60;;;;;;4978183;28;20442;-64
2022/09/04 16:16:09;;;;;;;1.70;1.70;;;28.50;63.90;;;;;;4977962;28;20509;-64
2022/09/04 16:18:47;;;;;;;2.00;1.90;;;28.50;63.60;;;;;;4978071;28;20500;-64
2022/09/04 16:21:22;;;;;;;1.90;1.67;;;28.40;63.50;;;;;;4977951;28;20489;-64
2022/09/04 16:23:49;;;;;;;2.23;2.13;;;28.30;63.00;;;;;;4978056;28;20437;-64
2022/09/04 16:26:18;;;;;;;1.77;1.67;;;28.10;64.10;;;;;;4977675;28;20938;-65
2022/09/04 16:28:50;;;;;;;2.10;2.00;;;28.00;64.80;;;;;;4977791;28;20513;-64
2022/09/04 16:31:28;;;;;;;1.90;1.80;;;27.90;64.80;;;;;;4977853;28;20478;-64
2022/09/04 16:33:59;;;;;;;1.60;1.50;;;27.80;64.90;;;;;;4977588;28;20438;-64
2022/09/04 16:36:33;;;;;;;1.73;1.67;;;27.70;65.60;;;;;;4977373;28;20965;-64
2022/09/04 16:39:05;;;;;;;1.50;1.40;;;27.70;66.40;;;;;;4977404;28;20439;-64
2022/09/04 16:41:38;;;;;;;1.60;1.50;;;27.60;65.90;;;;;;4977497;28;20479;-64
2022/09/04 16:44:14;;;;;;;1.67;1.57;;;27.50;65.90;;;;;;4977708;28;20438;-64
2022/09/04 16:46:56;;;;;;;1.70;1.60;;;27.40;65.00;;;;;;4977105;28;20961;-64
2022/09/04 16:49:29;;;;;;;1.87;1.70;;;27.30;65.30;;;;;;4977403;28;20443;-64
2022/09/04 16:52:01;;;;;;;1.40;1.40;;;27.20;66.10;;;;;;4977424;28;20474;-65
2022/09/04 16:54:34;;;;;;;2.30;2.03;;;27.20;66.70;;;;;;4977711;28;20477;-64
2022/09/04 16:57:10;;;;;;;1.60;1.60;;;27.10;67.00;;;;;;4977397;28;20557;-64
2022/09/04 16:59:42;;;;;;;1.83;1.83;;;27.00;66.70;;;;;;4977057;28;20443;-65
2022/09/04 17:02:21;;;;;;;1.90;1.80;;;27.00;68.10;;;;;;4976879;28;20572;-65
2022/09/04 17:04:52;;;;;;;1.47;1.47;;;26.90;66.70;;;;;;4977791;28;20446;-65
2022/09/04 17:07:24;;;;;;;2.30;1.60;;;26.90;66.70;;;;;;4977409;28;20447;-65
2022/09/04 17:10:01;;;;;;;1.83;1.73;;;26.80;66.90;;;;;;4977189;28;20447;-66
2022/09/04 17:12:42;;;;;;;1.60;1.60;;;26.80;67.70;;;;;;4977450;28;20470;-65
2022/09/04 17:15:20;;;;;;;1.70;1.60;;;26.80;68.50;;;;;;4977210;28;20521;-64
2022/09/04 17:17:49;;;;;;;2.27;2.07;;;26.70;69.40;;;;;;4977148;28;20538;-64
2022/09/04 17:20:23;;;;;;;2.03;1.87;;;26.70;71.30;;;;;;4976860;28;20451;-64
2022/09/04 17:23:02;;;;;;;2.07;1.97;;;26.60;71.30;;;;;;4977136;28;20787;-64
2022/09/04 17:25:34;;;;;;;1.70;1.60;;;26.60;71.90;;;;;;4977061;28;20435;-65
2022/09/04 17:28:28;;;;;;;1.97;1.87;;;26.50;73.60;;;;;;4976962;28;20439;-65
2022/09/04 17:30:59;;;;;;;1.70;1.60;;;26.50;74.80;;;;;;4976791;28;20477;-64
2022/09/04 17:33:33;;;;;;;1.60;1.50;;;26.40;75.30;;;;;;4976916;28;20441;-65
2022/09/04 17:36:06;;;;;;;2.60;2.20;;;26.30;74.80;;;;;;4976581;28;20976;-65
2022/09/04 17:38:39;;;;;;;2.20;1.80;;;26.20;76.20;;;;;;4976828;28;20442;-65
2022/09/04 17:41:19;;;;;;;2.10;2.00;;;26.20;77.40;;;;;;4976488;28;20533;-65
2022/09/04 17:44:01;;;;;;;3.80;2.50;;;26.10;79.00;;;;;;4976753;28;20450;-65
2022/09/04 17:46:35;;;;;;;2.43;2.30;;;26.00;79.00;;;;;;4976691;28;20533;-65
2022/09/04 17:49:12;;;;;;;3.43;2.30;;;25.90;80.10;;;;;;4976634;28;20461;-65
2022/09/04 17:51:50;;;;;;;2.20;2.07;;;25.80;80.30;;;;;;4976661;28;20474;-65
2022/09/04 17:54:17;;;;;;;2.50;2.40;;;25.70;80.70;;;;;;4976548;28;20442;-65
2022/09/04 17:56:49;;;;;;;5.50;2.33;;;25.50;81.00;;;;;;4976439;28;20485;-64
2022/09/04 17:59:22;;;;;;;3.43;1.90;;;25.40;81.30;;;;;;4976353;28;20450;-66
2022/09/04 18:01:57;;;;;;;1.70;1.60;;;25.30;81.80;;;;;;4976144;28;20489;-65
2022/09/04 18:04:32;;;;;;;2.00;1.90;;;25.10;82.50;;;;;;4975959;28;20973;-64
2022/09/04 18:07:05;;;;;;;2.57;2.33;;;25.00;82.90;;;;;;4976439;28;20438;-65
2022/09/04 18:09:39;;;;;;;2.33;2.03;;;24.80;83.40;;;;;;4975284;28;20503;-64